createdAt,value
2018-02-06T00:00:40.924Z,98445.63
2018-02-06T00:03:09.937Z,98448.48
2018-02-06T00:05:38.199Z,98452.73
2018-02-06T00:08:06.450Z,98450.96
2018-02-06T00:10:35.475Z,98447.77
2018-02-06T00:13:03.729Z,98452.73
2018-02-06T00:15:32.766Z,98445.13
2018-02-06T00:18:01.026Z,98448.77
2018-02-06T00:20:29.322Z,98448.55
2018-02-06T00:22:57.542Z,98450.00
2018-02-06T00:25:26.574Z,98439.42
2018-02-06T00:27:54.826Z,98439.56
2018-02-06T00:30:23.083Z,98436.23
2018-02-06T00:32:52.109Z,98435.81
2018-02-06T00:35:20.362Z,98433.16
2018-02-06T00:37:48.627Z,98433.08
2018-02-06T00:40:17.645Z,98430.69
2018-02-06T00:42:45.911Z,98428.34
2018-02-06T00:45:14.927Z,98424.59
2018-02-06T00:47:43.184Z,98430.16
2018-02-06T00:50:11.433Z,98426.16
2018-02-06T00:52:40.473Z,98420.78
2018-02-06T00:55:08.718Z,98413.67
2018-02-06T00:57:37.742Z,98407.73
2018-02-06T01:00:05.997Z,98413.04
2018-02-06T01:02:34.261Z,98405.52
2018-02-06T01:05:03.284Z,98400.95
2018-02-06T01:07:31.548Z,98397.27
2018-02-06T01:09:59.806Z,98396.98
2018-02-06T01:12:28.844Z,98394.23
2018-02-06T01:14:57.100Z,98394.86
2018-02-06T01:17:25.365Z,98390.94
2018-02-06T01:19:53.632Z,98388.67
2018-02-06T01:22:22.650Z,98387.18
2018-02-06T01:24:50.911Z,98378.27
2018-02-06T01:27:19.174Z,98380.56
2018-02-06T01:29:48.204Z,98380.92
2018-02-06T01:32:16.463Z,98378.70
2018-02-06T01:34:44.721Z,98368.44
2018-02-06T01:37:12.969Z,98362.45
2018-02-06T01:39:42.017Z,98356.69
2018-02-06T01:42:10.261Z,98358.68
2018-02-06T01:44:39.285Z,98351.04
2018-02-06T01:47:07.552Z,98350.77
2018-02-06T01:49:35.817Z,98348.17
2018-02-06T01:52:04.071Z,98346.27
2018-02-06T01:54:33.098Z,98343.55
2018-02-06T01:57:01.350Z,98334.28
2018-02-06T01:59:30.383Z,98333.64
2018-02-06T02:01:58.629Z,98333.83
2018-02-06T02:04:26.896Z,98319.50
2018-02-06T02:06:55.915Z,98319.68
2018-02-06T02:09:24.180Z,98314.44
2018-02-06T02:11:52.433Z,98310.42
2018-02-06T02:14:21.461Z,98301.70
2018-02-06T02:16:49.725Z,98288.06
2018-02-06T02:19:17.987Z,98276.61
2018-02-06T02:21:46.245Z,98272.22
2018-02-06T02:24:15.271Z,98264.38
2018-02-06T02:26:43.531Z,98262.25
2018-02-06T02:29:11.795Z,98264.41
2018-02-06T02:31:40.819Z,98258.09
2018-02-06T02:34:09.090Z,98253.88
2018-02-06T02:36:37.351Z,98247.86
2018-02-06T02:39:06.382Z,98243.16
2018-02-06T02:41:34.622Z,98239.45
2018-02-06T04:40:24.050Z,98128.62
2018-02-06T04:42:52.313Z,98121.20
2018-02-06T04:45:21.337Z,98121.94
2018-02-06T04:47:49.607Z,98125.94
2018-02-06T04:50:17.866Z,98128.72
2018-02-06T04:52:46.882Z,98117.34
2018-02-06T04:55:15.143Z,98119.41
2018-02-06T04:57:43.415Z,98117.34
2018-02-06T05:00:11.670Z,98119.55
2018-02-06T05:02:40.709Z,98121.20
2018-02-06T05:05:08.966Z,98124.08
2018-02-06T05:07:37.320Z,98115.00
2018-02-06T05:10:06.348Z,98109.84
2018-02-06T05:12:34.603Z,98098.81
2018-02-06T05:15:03.622Z,98101.79
2018-02-06T05:17:31.874Z,98099.21
2018-02-06T05:20:00.129Z,98100.14
2018-02-06T05:22:28.387Z,98105.41
2018-02-06T05:24:56.633Z,98099.03
2018-02-06T05:27:24.902Z,98094.27
2018-02-06T05:29:53.155Z,98085.70
2018-02-06T05:32:21.423Z,98096.73
2018-02-06T05:34:50.439Z,98092.53
2018-02-06T05:37:18.685Z,98072.37
2018-02-06T05:39:47.716Z,98067.77
2018-02-06T05:42:15.962Z,98057.13
2018-02-06T05:44:44.990Z,98050.30
2018-02-06T05:47:13.242Z,98054.66
2018-02-06T05:49:41.505Z,98051.35
2018-02-06T05:52:10.521Z,98065.12
2018-02-06T05:54:38.787Z,98063.13
2018-02-06T05:57:07.030Z,98058.94
2018-02-06T05:59:36.059Z,98054.92
2018-02-06T06:02:04.306Z,98052.48
2018-02-06T06:04:33.326Z,98053.88
2018-02-06T06:07:01.581Z,98050.86
2018-02-06T06:09:30.610Z,98053.55
2018-02-06T06:11:58.870Z,98056.60
2018-02-06T06:14:27.140Z,98045.77
2018-02-06T06:16:55.392Z,98059.77
2018-02-06T06:19:24.425Z,98054.20
2018-02-06T06:21:52.694Z,98041.23
2018-02-06T06:24:20.954Z,98044.54
2018-02-06T06:26:49.979Z,98045.09
2018-02-06T06:29:18.240Z,98043.25
2018-02-06T06:31:46.495Z,98034.41
2018-02-06T06:34:15.526Z,98026.42
2018-02-06T06:36:43.781Z,98018.87
2018-02-06T06:39:12.034Z,98022.22
2018-02-06T06:41:41.061Z,98020.04
2018-02-06T06:44:09.313Z,98016.40
2018-02-06T06:46:37.585Z,98021.47
2018-02-06T06:49:06.611Z,98033.83
2018-02-06T06:51:34.874Z,98028.23
2018-02-06T06:54:03.124Z,98036.34
2018-02-06T06:56:32.147Z,98037.45
2018-02-06T06:59:00.390Z,98042.98
2018-02-06T07:01:29.421Z,98036.47
2018-02-06T07:03:57.682Z,98039.48
2018-02-06T07:06:25.947Z,98037.40
2018-02-06T07:08:54.953Z,98034.11
2018-02-06T07:11:23.213Z,98039.91
2018-02-06T07:13:51.471Z,98041.89
2018-02-06T07:16:20.504Z,98044.83
2018-02-06T07:18:48.745Z,98040.63
2018-02-06T07:21:17.770Z,98028.19
2018-02-06T07:23:46.031Z,98021.84
2018-02-06T07:26:14.297Z,98026.69
2018-02-06T07:28:42.562Z,98013.83
2018-02-06T07:31:11.598Z,98005.89
2018-02-06T07:33:39.855Z,98004.97
2018-02-06T07:36:08.107Z,98003.65
2018-02-06T07:38:37.135Z,98002.91
2018-02-06T07:41:05.397Z,97997.27
2018-02-06T07:43:33.671Z,98002.53
2018-02-06T07:46:01.926Z,97995.14
2018-02-06T07:48:30.955Z,97990.02
2018-02-06T07:50:59.248Z,97991.33
2018-02-06T07:53:27.474Z,97989.61
2018-02-06T07:55:56.501Z,97985.81
2018-02-06T07:58:24.763Z,97994.95
2018-02-06T08:00:53.026Z,97999.13
2018-02-06T08:03:22.057Z,97990.38
2018-02-06T08:05:50.310Z,97990.48
2018-02-06T08:08:18.588Z,97982.93
2018-02-06T08:10:46.855Z,97980.39
2018-02-06T08:13:15.126Z,97985.62
2018-02-06T08:15:44.151Z,97985.98
2018-02-06T08:18:12.417Z,97984.34
2018-02-06T08:20:40.674Z,97993.57
2018-02-06T08:23:08.952Z,97991.42
2018-02-06T08:25:37.211Z,97976.61
2018-02-06T08:28:06.243Z,97971.88
2018-02-06T08:30:34.511Z,97975.14
2018-02-06T08:33:02.767Z,97969.66
2018-02-06T08:35:31.037Z,97971.78
2018-02-06T08:38:00.065Z,97972.06
2018-02-06T08:40:28.334Z,97971.59
2018-02-06T08:42:56.598Z,97971.27
2018-02-06T08:45:24.865Z,97969.99
2018-02-06T08:47:53.125Z,97965.16
2018-02-06T08:50:22.168Z,97963.20
2018-02-06T08:52:50.433Z,97964.33
2018-02-06T08:55:18.697Z,97962.36
2018-02-06T08:57:46.962Z,97958.66
2018-02-06T09:00:15.242Z,97953.36
2018-02-06T09:02:43.496Z,97949.94
2018-02-06T09:05:12.533Z,97949.29
2018-02-06T09:07:40.804Z,97952.66
2018-02-06T09:10:09.110Z,97945.00
2018-02-06T09:12:38.125Z,97944.70
2018-02-06T09:15:07.157Z,97946.42
2018-02-06T09:17:35.439Z,97937.84
2018-02-06T09:20:03.704Z,97933.27
2018-02-06T09:22:31.970Z,97924.39
2018-02-06T09:25:00.237Z,97927.68
2018-02-06T09:27:28.513Z,97928.78
2018-02-06T09:29:57.533Z,97928.90
2018-02-06T09:32:25.801Z,97926.99
2018-02-06T09:34:54.069Z,97915.36
2018-02-06T09:37:22.341Z,97911.77
2018-02-06T09:39:50.616Z,97912.27
2018-02-06T09:42:18.887Z,97918.27
2018-02-06T09:44:47.909Z,97911.77
2018-02-06T09:47:16.171Z,97913.55
2018-02-06T09:49:44.424Z,97906.73
2018-02-06T09:52:13.449Z,97907.61
2018-02-06T09:54:41.701Z,97902.19
2018-02-06T09:57:10.733Z,97910.59
2018-02-06T09:59:38.992Z,97912.12
2018-02-06T10:02:07.245Z,97903.05
2018-02-06T10:04:36.269Z,97904.61
2018-02-06T10:07:04.527Z,97899.30
2018-02-06T10:09:32.801Z,97893.62
2018-02-06T10:12:01.063Z,97899.08
2018-02-06T10:14:30.095Z,97902.48
2018-02-06T10:16:58.345Z,97899.39
2018-02-06T10:19:26.613Z,97900.84
2018-02-06T10:21:55.639Z,97889.66
2018-02-06T10:24:23.899Z,97886.91
2018-02-06T10:26:52.152Z,97886.66
2018-02-06T10:29:21.182Z,97886.66
2018-02-06T10:31:49.437Z,97877.28
2018-02-06T10:34:17.703Z,97885.37
2018-02-06T10:36:45.963Z,97886.44
2018-02-06T10:39:14.986Z,97880.05
2018-02-06T10:41:43.239Z,97883.45
2018-02-06T10:44:15.357Z,97879.17
2018-02-06T10:46:43.623Z,97875.00
2018-02-06T10:49:11.865Z,97869.36
2018-02-06T10:51:40.885Z,97863.59
2018-02-06T10:54:09.141Z,97862.75
2018-02-06T10:56:37.398Z,97857.59
2018-02-06T10:59:06.414Z,97854.36
2018-02-06T11:01:34.671Z,97855.41
2018-02-06T11:04:03.684Z,97841.52
2018-02-06T11:06:31.944Z,97845.39
2018-02-06T11:09:00.958Z,97836.70
2018-02-06T11:11:29.212Z,97838.55
2018-02-06T11:13:58.227Z,97839.03
2018-02-06T11:16:26.478Z,97826.33
2018-02-06T11:18:55.499Z,97828.44
2018-02-06T11:21:23.750Z,97820.13
2018-02-06T11:23:52.761Z,97818.43
2018-02-06T11:26:21.016Z,97820.55
2018-02-06T11:28:50.705Z,97812.39
2018-02-06T11:31:18.958Z,97810.69
2018-02-06T11:33:47.213Z,97812.51
2018-02-06T11:36:15.469Z,97811.45
2018-02-06T11:38:43.712Z,97803.36
2018-02-06T11:41:12.729Z,97802.52
2018-02-06T11:43:40.981Z,97802.75
2018-02-06T11:46:09.229Z,97801.09
2018-02-06T11:48:37.486Z,97792.16
2018-02-06T11:51:05.737Z,97790.31
2018-02-06T11:53:33.989Z,97785.14
2018-02-06T11:56:03.002Z,97787.73
2018-02-06T11:58:31.261Z,97776.23
2018-02-06T12:01:00.279Z,97769.26
2018-02-06T12:03:28.543Z,97772.36
2018-02-06T12:05:56.786Z,97759.52
2018-02-06T12:08:25.041Z,97762.30
2018-02-06T12:10:54.053Z,97767.11
2018-02-06T12:13:22.312Z,97764.77
2018-02-06T12:15:50.560Z,97761.03
2018-02-06T12:18:18.821Z,97752.72
2018-02-06T12:20:47.074Z,97756.89
2018-02-06T12:23:16.098Z,97752.68
2018-02-06T12:25:44.338Z,97753.13
2018-02-06T12:28:13.366Z,97750.61
2018-02-06T12:30:41.614Z,97744.09
2018-02-06T12:33:10.626Z,97736.69
2018-02-06T12:35:38.878Z,97733.56
2018-02-06T12:38:07.886Z,97740.67
2018-02-06T12:40:36.139Z,97729.62
2018-02-06T12:43:05.151Z,97732.65
2018-02-06T12:45:34.171Z,97727.83
2018-02-06T12:48:02.415Z,97728.05
2018-02-06T12:50:31.446Z,97724.13
2018-02-06T12:52:59.695Z,97720.27
2018-02-06T12:55:27.949Z,97706.88
2018-02-06T12:57:56.960Z,97711.49
2018-02-06T13:00:25.222Z,97714.23
2018-02-06T13:02:54.224Z,97704.74
2018-02-06T13:05:22.478Z,97695.94
2018-02-06T13:07:50.722Z,97700.80
2018-02-06T13:10:18.976Z,97702.81
2018-02-06T13:12:47.221Z,97702.48
2018-02-06T13:15:16.246Z,97703.22
2018-02-06T13:17:44.506Z,97693.14
2018-02-06T13:20:12.746Z,97691.70
2018-02-06T13:22:41.001Z,97691.64
2018-02-06T13:25:09.249Z,97692.70
2018-02-06T13:27:37.499Z,97690.91
2018-02-06T13:30:06.506Z,97684.52
2018-02-06T13:32:34.757Z,97679.07
2018-02-06T13:35:03.779Z,97682.83
2018-02-06T13:37:32.026Z,97677.59
2018-02-06T13:40:01.036Z,97671.28
2018-02-06T13:42:29.293Z,97673.27
2018-02-06T13:44:58.305Z,97684.20
2018-02-06T13:47:26.580Z,97678.11
2018-02-06T13:49:54.825Z,97674.78
2018-02-06T13:52:23.845Z,97663.70
2018-02-06T13:54:52.090Z,97664.25
2018-02-06T13:57:20.391Z,97662.80
2018-02-06T13:59:49.402Z,97663.98
2018-02-06T14:02:17.649Z,97663.58
2018-02-06T14:04:46.673Z,97662.17
2018-02-06T14:07:14.920Z,97655.33
2018-02-06T14:09:43.946Z,97649.04
2018-02-06T14:12:12.190Z,97639.33
2018-02-06T14:14:41.210Z,97635.75
2018-02-06T14:17:09.450Z,97636.34
2018-02-06T14:19:38.470Z,97629.69
2018-02-06T14:22:06.724Z,97622.55
2018-02-06T14:24:35.750Z,97632.58
2018-02-06T14:27:03.995Z,97620.11
2018-02-06T14:29:33.023Z,97629.63
2018-02-06T14:32:01.266Z,97624.64
2018-02-06T14:34:30.298Z,97626.17
2018-02-06T14:36:58.541Z,97623.20
2018-02-06T14:39:26.800Z,97614.30
2018-02-06T14:41:55.813Z,97615.05
2018-02-06T14:44:24.070Z,97617.59
2018-02-06T14:46:53.085Z,97611.44
2018-02-06T14:49:21.345Z,97618.77
2018-02-06T14:51:50.361Z,97602.69
2018-02-06T14:54:18.617Z,97611.71
2018-02-06T14:56:47.625Z,97609.84
2018-02-06T14:59:15.884Z,97602.76
2018-02-06T15:01:44.146Z,97603.25
2018-02-06T15:04:13.166Z,97603.62
2018-02-06T15:06:41.421Z,97593.16
2018-02-06T15:09:10.441Z,97600.16
2018-02-06T15:11:38.707Z,97592.48
2018-02-06T15:14:07.717Z,97592.61
2018-02-06T15:16:35.979Z,97594.48
2018-02-06T15:19:04.254Z,97594.98
2018-02-06T15:21:32.511Z,97591.08
2018-02-06T15:24:01.522Z,97598.01
2018-02-06T15:26:29.777Z,97599.03
2018-02-06T15:28:58.799Z,97592.37
2018-02-06T15:31:27.063Z,97594.49
2018-02-06T15:33:55.310Z,97600.42
2018-02-06T15:36:23.571Z,97602.63
2018-02-06T15:38:51.818Z,97602.49
2018-02-06T15:41:20.082Z,97605.66
2018-02-06T15:43:48.330Z,97600.92
2018-02-06T15:46:16.590Z,97604.89
2018-02-06T15:48:45.606Z,97601.15
2018-02-06T15:51:13.858Z,97603.23
2018-02-06T15:53:42.873Z,97600.18
2018-02-06T15:56:11.137Z,97599.87
2018-02-06T15:58:40.162Z,97600.87
2018-02-06T16:01:10.692Z,97599.84
2018-02-06T16:03:38.940Z,97596.78
2018-02-06T16:06:07.243Z,97597.29
2018-02-06T16:08:35.506Z,97603.03
2018-02-06T16:11:03.750Z,97608.77
2018-02-06T16:13:31.999Z,97612.48
2018-02-06T16:16:00.249Z,97610.48
2018-02-06T16:18:28.511Z,97611.00
2018-02-06T16:20:56.761Z,97609.59
2018-02-06T16:23:25.791Z,97614.05
2018-02-06T16:25:54.049Z,97618.74
2018-02-06T16:28:22.313Z,97611.91
2018-02-06T16:30:51.330Z,97617.86
2018-02-06T16:33:19.595Z,97612.06
2018-02-06T16:35:47.846Z,97615.40
2018-02-06T16:38:16.881Z,97613.25
2018-02-06T16:40:45.130Z,97614.97
2018-02-06T16:43:13.394Z,97618.70
2018-02-06T16:45:42.417Z,97609.80
2018-02-06T16:48:10.682Z,97604.84
2018-02-06T16:50:38.932Z,97604.61
2018-02-06T16:53:07.971Z,97602.49
2018-02-06T16:55:36.230Z,97612.81
2018-02-06T16:58:04.502Z,97608.49
2018-02-06T17:00:32.759Z,97608.75
2018-02-06T17:03:01.781Z,97607.33
2018-02-06T17:05:30.049Z,97610.56
2018-02-06T17:07:58.310Z,97607.06
2018-02-06T17:10:27.347Z,97608.16
2018-02-06T17:12:55.619Z,97606.00
2018-02-06T17:15:23.886Z,97604.39
2018-02-06T17:17:52.149Z,97597.36
2018-02-06T17:20:20.417Z,97605.58
2018-02-06T17:22:48.673Z,97601.86
2018-02-06T17:25:17.717Z,97590.20
2018-02-06T17:27:46.751Z,97597.91
2018-02-06T17:30:15.030Z,97593.06
2018-02-06T17:32:43.282Z,97597.04
2018-02-06T17:35:11.559Z,97601.66
2018-02-06T17:37:39.814Z,97604.67
2018-02-06T17:40:08.088Z,97609.39
2018-02-06T17:42:36.349Z,97610.64
2018-02-06T17:45:04.622Z,97617.83
2018-02-06T17:47:32.885Z,97616.59
2018-02-06T17:50:01.152Z,97615.76
2018-02-06T17:52:29.417Z,97615.76
2018-02-06T17:54:58.445Z,97616.58
2018-02-06T17:57:26.710Z,97621.64
2018-02-06T17:59:54.980Z,97622.32
2018-02-06T18:02:23.237Z,97619.09
2018-02-06T18:04:52.271Z,97621.48
2018-02-06T18:07:20.525Z,97619.28
2018-02-06T18:09:48.791Z,97619.61
2018-02-06T18:12:17.057Z,97609.57
2018-02-06T18:14:46.087Z,97612.05
2018-02-06T18:17:14.358Z,97613.39
2018-02-06T18:19:42.622Z,97608.78
2018-02-06T18:22:10.901Z,97608.33
2018-02-06T18:24:39.158Z,97612.37
2018-02-06T18:27:08.195Z,97602.28
2018-02-06T18:29:36.441Z,97601.63
2018-02-06T18:32:04.713Z,97607.00
2018-02-06T18:34:32.970Z,97598.94
2018-02-06T18:37:01.999Z,97603.13
2018-02-06T18:39:30.259Z,97597.66
2018-02-06T18:41:58.520Z,97598.59
2018-02-06T18:44:27.542Z,97599.42
2018-02-06T18:46:55.863Z,97597.32
2018-02-06T18:49:24.126Z,97598.75
2018-02-06T18:51:52.391Z,97594.03
2018-02-06T18:54:20.653Z,97592.36
2018-02-06T18:56:48.964Z,97593.41
2018-02-06T18:59:17.221Z,97593.80
2018-02-06T19:01:45.477Z,97595.30
2018-02-06T19:04:13.745Z,97595.39
2018-02-06T19:06:42.003Z,97590.28
2018-02-06T19:09:11.035Z,97588.14
2018-02-06T19:11:39.309Z,97597.06
2018-02-06T19:14:07.557Z,97597.48
2018-02-06T19:16:35.817Z,97598.23
2018-02-06T19:19:04.853Z,97593.48
2018-02-06T19:21:33.156Z,97589.75
2018-02-06T19:24:01.470Z,97595.42
2018-02-06T19:26:30.481Z,97586.45
2018-02-06T19:28:58.804Z,97587.06
2018-02-06T19:31:27.059Z,97589.04
2018-02-06T19:33:56.149Z,97590.27
2018-02-06T19:36:24.402Z,97588.01
2018-02-06T19:38:52.747Z,97585.91
2018-02-06T19:41:20.990Z,97592.13
2018-02-06T19:43:49.257Z,97599.11
2018-02-06T19:46:18.338Z,97597.02
2018-02-06T19:48:46.598Z,97601.03
2018-02-06T19:51:14.909Z,97598.35
2018-02-06T19:53:43.892Z,97590.58
2018-02-06T19:56:12.149Z,97592.66
2018-02-06T19:58:40.419Z,97595.47
2018-02-06T20:01:08.678Z,97596.34
2018-02-06T20:03:37.707Z,97595.17
2018-02-06T20:06:06.027Z,97591.27
2018-02-06T20:08:34.326Z,97599.22
2018-02-06T20:11:03.411Z,97599.20
2018-02-06T20:13:31.665Z,97594.27
2018-02-06T20:15:59.984Z,97590.08
2018-02-06T20:18:29.016Z,97591.03
2018-02-06T20:20:57.345Z,97589.17
2018-02-06T20:23:26.413Z,97593.41
2018-02-06T20:25:54.674Z,97592.35
2018-02-06T20:28:23.693Z,97598.11
2018-02-06T20:30:52.739Z,97593.52
2018-02-06T20:33:21.042Z,97596.03
2018-02-06T20:35:49.297Z,97590.09
2018-02-06T20:38:17.559Z,97594.39
2018-02-06T20:40:45.823Z,97597.43
2018-02-06T20:43:14.089Z,97600.56
2018-02-06T20:45:42.393Z,97600.17
2018-02-06T20:48:10.700Z,97601.63
2018-02-06T20:50:39.007Z,97603.06
2018-02-06T20:53:08.037Z,97595.56
2018-02-06T20:55:36.293Z,97597.77
2018-02-06T20:58:04.562Z,97598.98
2018-02-06T21:00:32.822Z,97593.02
2018-02-06T21:03:01.850Z,97592.91
2018-02-06T21:05:30.113Z,97590.75
2018-02-06T21:07:59.133Z,97586.85
2018-02-06T21:10:27.396Z,97586.80
2018-02-06T21:12:55.676Z,97584.68
2018-02-06T21:15:23.926Z,97587.93
2018-02-06T21:17:52.204Z,97578.52
2018-02-06T21:20:20.464Z,97580.82
2018-02-06T21:22:49.500Z,97582.11
2018-02-06T21:25:17.807Z,97583.45
2018-02-06T21:27:46.882Z,97583.69
2018-02-06T21:30:15.142Z,97586.28
2018-02-06T21:32:43.419Z,97585.52
2018-02-06T21:35:11.720Z,97582.50
2018-02-06T21:37:39.985Z,97589.50
2018-02-06T21:40:08.293Z,97588.23
2018-02-06T21:42:36.592Z,97592.87
2018-02-06T21:45:05.614Z,97596.14
2018-02-06T21:47:33.873Z,97600.61
2018-02-06T21:50:02.140Z,97600.72
2018-02-06T21:52:31.167Z,97600.58
2018-02-06T21:54:59.427Z,97601.45
2018-02-06T21:57:27.683Z,97603.02
2018-02-06T21:59:56.724Z,97597.80
2018-02-06T22:02:25.017Z,97602.78
2018-02-06T22:04:53.279Z,97605.44
2018-02-06T22:07:21.550Z,97598.00
2018-02-06T22:09:49.810Z,97600.11
2018-02-06T22:12:18.120Z,97596.05
2018-02-06T22:14:47.151Z,97594.09
2018-02-06T22:17:16.184Z,97591.15
2018-02-06T22:19:44.481Z,97589.34
2018-02-06T22:22:12.702Z,97594.69
2018-02-06T22:24:40.970Z,97588.47
2018-02-06T22:27:10.036Z,97580.34
2018-02-06T22:29:38.470Z,97597.22
2018-02-06T22:32:06.732Z,97592.11
2018-02-06T22:34:35.014Z,97590.93
2018-02-06T22:37:03.275Z,97588.88
2018-02-06T22:39:32.295Z,97588.98
2018-02-06T22:42:00.559Z,97592.19
2018-02-06T22:44:28.814Z,97593.17
2018-02-06T22:46:57.854Z,97590.13
2018-02-06T22:49:26.118Z,97600.34
2018-02-06T22:51:54.374Z,97599.57
2018-02-06T22:54:22.629Z,97594.33
2018-02-06T22:56:51.672Z,97594.56
2018-02-06T22:59:19.934Z,97593.25
2018-02-06T23:01:48.202Z,97593.70
2018-02-06T23:04:16.592Z,97601.02
2018-02-06T23:06:45.012Z,97596.08
2018-02-06T23:09:13.334Z,97591.84
2018-02-06T23:11:42.445Z,97598.19
2018-02-06T23:14:11.230Z,97599.87
2018-02-06T23:16:39.938Z,97599.16
2018-02-06T23:19:08.310Z,97598.41
2018-02-06T23:21:36.746Z,97599.38
2018-02-06T23:24:06.073Z,97600.89
2018-02-06T23:26:34.485Z,97606.52
2018-02-06T23:29:02.756Z,97606.38
2018-02-06T23:31:31.062Z,97608.26
2018-02-06T23:34:00.092Z,97614.16
2018-02-06T23:36:28.342Z,97617.59
2018-02-06T23:38:57.397Z,97612.87
2018-02-06T23:41:25.649Z,97611.04
2018-02-06T23:43:53.944Z,97606.42
2018-02-06T23:46:22.190Z,97608.03
2018-02-06T23:48:51.137Z,97611.89
2018-02-06T23:51:19.390Z,97605.09
2018-02-06T23:53:47.652Z,97605.45
2018-02-06T23:56:15.906Z,97608.87
2018-02-06T23:58:44.167Z,97601.36
